Time,TemperatureF,DewpointF,PressureIn,WindDirection,WindDirectionDegrees,WindSpeedMPH,WindSpeedGustMPH,Humidity,HourlyPrecipIn,Conditions,Clouds,dailyrainin,SoftwareType,DateUTC
2013-04-18 00:02:00,9.7,0.0,30.78,NW,315,4.0,-999.0,64,-99.99,,,0.00,meteohub,2013-04-18 06:02:00,
2013-04-18 00:07:00,9.7,0.0,30.79,NW,315,4.0,-999.0,64,-99.99,,,0.00,meteohub,2013-04-18 06:07:00,
2013-04-18 00:12:00,9.3,-0.4,30.78,North,0,3.0,-999.0,64,-99.99,,,0.00,meteohub,2013-04-18 06:12:00,
2013-04-18 00:17:00,9.1,-0.6,30.78,North,0,4.0,-999.0,64,-99.99,,,0.00,meteohub,2013-04-18 06:17:00,
2013-04-18 00:22:00,9.3,-0.4,30.78,North,0,8.0,-999.0,64,-99.99,,,0.00,meteohub,2013-04-18 06:22:00,
2013-04-18 00:27:00,9.1,-0.6,30.78,NE,45,7.0,-999.0,64,-99.99,,,0.00,meteohub,2013-04-18 06:27:00,
2013-04-18 00:32:00,9.1,-0.6,30.79,NNW,338,5.0,-999.0,64,-99.99,,,0.00,meteohub,2013-04-18 06:32:00,
2013-04-18 00:37:00,9.1,-0.6,30.79,NE,45,8.0,11.0,64,0.00,,,0.00,meteohub,2013-04-18 06:37:00,
2013-04-18 00:42:00,9.0,-0.8,30.79,NW,315,7.0,11.0,64,0.00,,,0.00,meteohub,2013-04-18 06:42:00,
2013-04-18 00:47:00,9.1,-0.6,30.79,NE,45,7.0,11.0,64,0.00,,,0.00,meteohub,2013-04-18 06:47:00,
2013-04-18 00:52:00,9.0,-0.8,30.79,NW,315,7.0,11.0,64,0.00,,,0.00,meteohub,2013-04-18 06:52:00,
2013-04-18 00:57:00,9.0,-0.8,30.79,North,0,8.0,10.0,64,0.00,,,0.00,meteohub,2013-04-18 06:57:00,
2013-04-18 01:02:00,9.0,-0.8,30.79,SE,135,8.0,10.0,64,0.00,,,0.00,meteohub,2013-04-18 07:02:00,
2013-04-18 01:07:00,8.8,-0.9,30.79,West,270,9.0,13.0,64,0.00,,,0.00,meteohub,2013-04-18 07:07:00,
2013-04-18 01:12:00,8.6,-1.1,30.79,North,0,9.0,13.0,64,0.00,,,0.00,meteohub,2013-04-18 07:12:00,
2013-04-18 01:17:00,8.4,-0.9,30.79,North,0,9.0,13.0,65,0.00,,,0.00,meteohub,2013-04-18 07:17:00,
2013-04-18 01:22:00,8.2,-1.1,30.79,North,0,9.0,12.0,65,0.00,,,0.00,meteohub,2013-04-18 07:22:00,
2013-04-18 01:27:00,8.1,-1.3,30.79,NW,315,7.0,14.0,65,0.00,,,0.00,meteohub,2013-04-18 07:27:00,
2013-04-18 01:32:00,7.9,-1.8,30.79,NW,315,6.0,14.0,64,0.00,,,0.00,meteohub,2013-04-18 07:32:00,
2013-04-18 01:37:00,7.7,-2.0,30.79,WNW,293,12.0,14.0,64,0.00,,,0.00,meteohub,2013-04-18 07:37:00,
2013-04-18 01:42:00,7.5,-2.0,30.79,NW,315,7.0,12.0,64,0.00,,,0.00,meteohub,2013-04-18 07:42:00,
2013-04-18 01:47:00,7.5,-2.0,30.79,West,270,9.0,12.0,64,0.00,,,0.00,meteohub,2013-04-18 07:47:00,
2013-04-18 01:52:00,7.5,-2.0,30.79,NW,315,9.0,12.0,64,0.00,,,0.00,meteohub,2013-04-18 07:52:00,
2013-04-18 01:57:00,7.3,-2.2,30.79,NW,315,9.0,12.0,64,0.00,,,0.00,meteohub,2013-04-18 07:57:00,
2013-04-18 02:02:00,7.3,-2.2,30.79,NW,315,8.0,12.0,64,0.00,,,0.00,meteohub,2013-04-18 08:02:00,
2013-04-18 02:07:00,7.3,-2.2,30.79,NW,315,8.0,11.0,64,0.00,,,0.00,meteohub,2013-04-18 08:07:00,
2013-04-18 02:12:00,7.2,-2.4,30.79,North,0,8.0,11.0,64,0.00,,,0.00,meteohub,2013-04-18 08:12:00,
2013-04-18 02:17:00,7.2,-2.4,30.79,NE,45,8.0,10.0,64,0.00,,,0.00,meteohub,2013-04-18 08:17:00,
2013-04-18 02:22:00,7.0,-2.6,30.79,North,0,8.0,10.0,64,0.00,,,0.00,meteohub,2013-04-18 08:22:00,
2013-04-18 02:27:00,7.0,-2.6,30.79,NNW,338,10.0,11.0,64,0.00,,,0.00,meteohub,2013-04-18 08:27:00,
2013-04-18 02:32:00,7.0,-2.6,30.79,SE,135,10.0,11.0,64,0.00,,,0.00,meteohub,2013-04-18 08:32:00,
2013-04-18 02:37:00,7.0,-2.6,30.79,North,0,8.0,11.0,64,0.00,,,0.00,meteohub,2013-04-18 08:37:00,
2013-04-18 02:42:00,7.2,-2.2,30.79,North,0,9.0,11.0,65,0.00,,,0.00,meteohub,2013-04-18 08:42:00,
2013-04-18 02:47:00,7.2,-2.2,30.79,North,0,7.0,11.0,65,0.00,,,0.00,meteohub,2013-04-18 08:47:00,
2013-04-18 02:52:00,7.3,-2.0,30.79,North,0,7.0,9.0,65,0.00,,,0.00,meteohub,2013-04-18 08:52:00,
2013-04-18 02:57:00,7.2,-2.2,30.79,NW,315,8.0,9.0,65,0.00,,,0.00,meteohub,2013-04-18 08:57:00,
2013-04-18 03:02:00,7.2,-2.2,30.79,North,0,8.0,10.0,65,0.00,,,0.00,meteohub,2013-04-18 09:02:00,
2013-04-18 03:07:00,7.2,-2.2,30.79,North,0,5.0,10.0,65,0.00,,,0.00,meteohub,2013-04-18 09:07:00,
2013-04-18 03:12:00,7.0,-2.6,30.79,NW,315,5.0,11.0,64,0.00,,,0.00,meteohub,2013-04-18 09:12:00,
2013-04-18 03:17:00,7.2,-2.2,30.79,NE,45,5.0,11.0,65,0.00,,,0.00,meteohub,2013-04-18 09:17:00,
2013-04-18 03:22:00,7.2,-2.2,30.79,North,0,5.0,8.0,65,0.00,,,0.00,meteohub,2013-04-18 09:22:00,
2013-04-18 03:27:00,7.0,-2.4,30.79,NW,315,9.0,9.0,65,0.00,,,0.00,meteohub,2013-04-18 09:27:00,
2013-04-18 03:32:00,7.0,-2.6,30.79,NW,315,7.0,9.0,64,0.00,,,0.00,meteohub,2013-04-18 09:32:00,
2013-04-18 03:37:00,7.0,-2.6,30.79,NW,315,7.0,9.0,64,0.00,,,0.00,meteohub,2013-04-18 09:37:00,
2013-04-18 03:42:00,7.0,-2.6,30.79,North,0,8.0,9.0,64,0.00,,,0.00,meteohub,2013-04-18 09:42:00,
2013-04-18 03:48:00,6.8,-2.7,30.79,North,0,6.0,10.0,64,0.00,,,0.00,meteohub,2013-04-18 09:48:00,
2013-04-18 03:53:00,6.8,-2.7,30.79,North,0,8.0,10.0,64,0.00,,,0.00,meteohub,2013-04-18 09:53:00,
2013-04-18 03:58:00,6.8,-2.7,30.79,North,0,6.0,11.0,64,0.00,,,0.00,meteohub,2013-04-18 09:58:00,
2013-04-18 04:03:00,6.8,-2.7,30.79,North,0,8.0,11.0,64,0.00,,,0.00,meteohub,2013-04-18 10:03:00,
2013-04-18 04:08:00,6.6,-2.6,30.79,NNW,338,8.0,11.0,65,0.00,,,0.00,meteohub,2013-04-18 10:08:00,
2013-04-18 04:13:00,6.6,-2.9,30.79,NW,315,11.0,11.0,64,0.00,,,0.00,meteohub,2013-04-18 10:13:00,
2013-04-18 04:18:00,6.4,-3.1,30.79,SW,225,8.0,11.0,64,0.00,,,0.00,meteohub,2013-04-18 10:18:00,
2013-04-18 04:23:00,6.4,-3.1,30.79,West,270,7.0,13.0,64,0.00,,,0.00,meteohub,2013-04-18 10:23:00,
2013-04-18 04:28:00,6.4,-3.1,30.79,West,270,8.0,13.0,64,0.00,,,0.00,meteohub,2013-04-18 10:28:00,
2013-04-18 04:33:00,6.4,-3.1,30.79,NW,315,4.0,10.0,64,0.00,,,0.00,meteohub,2013-04-18 10:33:00,
2013-04-18 04:38:00,6.3,-3.3,30.79,NNW,338,8.0,9.0,64,0.00,,,0.00,meteohub,2013-04-18 10:38:00,
2013-04-18 04:43:00,6.3,-3.3,30.79,North,0,8.0,8.0,64,0.00,,,0.00,meteohub,2013-04-18 10:43:00,
2013-04-18 04:48:00,6.3,-3.3,30.79,West,270,5.0,8.0,64,0.00,,,0.00,meteohub,2013-04-18 10:48:00,
2013-04-18 04:53:00,6.1,-3.5,30.79,NW,315,6.0,8.0,64,0.00,,,0.00,meteohub,2013-04-18 10:53:00,
2013-04-18 04:58:00,6.1,-3.1,30.79,NW,315,6.0,8.0,65,0.00,,,0.00,meteohub,2013-04-18 10:58:00,
2013-04-18 05:03:00,6.1,-3.5,30.79,North,0,5.0,8.0,64,0.00,,,0.00,meteohub,2013-04-18 11:03:00,
2013-04-18 05:08:00,5.9,-3.6,30.79,North,0,5.0,9.0,64,0.00,,,0.00,meteohub,2013-04-18 11:08:00,
2013-04-18 05:13:00,5.7,-3.8,30.79,NW,315,5.0,9.0,64,0.00,,,0.00,meteohub,2013-04-18 11:13:00,
2013-04-18 05:18:00,5.7,-3.8,30.79,NW,315,4.0,9.0,64,0.00,,,0.00,meteohub,2013-04-18 11:18:00,
2013-04-18 05:23:00,5.5,-4.0,30.79,NW,315,7.0,7.0,64,0.00,,,0.00,meteohub,2013-04-18 11:23:00,
2013-04-18 05:28:00,5.4,-4.2,30.79,NE,45,5.0,8.0,64,0.00,,,0.00,meteohub,2013-04-18 11:28:00,
2013-04-18 05:33:00,5.4,-4.2,30.79,NNW,338,6.0,8.0,64,0.00,,,0.00,meteohub,2013-04-18 11:33:00,
2013-04-18 05:38:00,5.4,-4.2,30.79,North,0,2.0,8.0,64,0.00,,,0.00,meteohub,2013-04-18 11:38:00,
2013-04-18 05:43:00,5.2,-4.4,30.79,North,0,2.0,6.0,64,0.00,,,0.00,meteohub,2013-04-18 11:43:00,
2013-04-18 05:48:00,5.2,-4.4,30.79,North,0,2.0,6.0,64,0.00,,,0.00,meteohub,2013-04-18 11:48:00,
2013-04-18 05:53:00,5.0,-4.5,30.79,North,0,2.0,5.0,64,0.00,,,0.00,meteohub,2013-04-18 11:53:00,
2013-04-18 05:58:00,5.0,-4.5,30.79,North,0,3.0,4.0,64,0.00,,,0.00,meteohub,2013-04-18 11:58:00,
2013-04-18 06:03:00,4.8,-4.4,30.79,North,0,3.0,4.0,65,0.00,,,0.00,meteohub,2013-04-18 12:03:00,
2013-04-18 06:08:00,4.6,-4.5,30.79,NE,45,4.0,4.0,65,0.00,,,0.00,meteohub,2013-04-18 12:08:00,
2013-04-18 06:13:00,4.8,-4.4,30.79,NNW,338,3.0,5.0,65,0.00,,,0.00,meteohub,2013-04-18 12:13:00,
2013-04-18 06:18:00,4.8,-4.4,30.79,NW,315,4.0,5.0,65,0.00,,,0.00,meteohub,2013-04-18 12:18:00,
2013-04-18 06:23:00,4.8,-4.4,30.80,NW,315,3.0,5.0,65,0.00,,,0.00,meteohub,2013-04-18 12:23:00,
2013-04-18 06:28:00,4.8,-4.4,30.80,NE,45,2.0,4.0,65,0.00,,,0.00,meteohub,2013-04-18 12:28:00,
2013-04-18 06:33:00,4.8,-4.4,30.80,NW,315,3.0,4.0,65,0.00,,,0.00,meteohub,2013-04-18 12:33:00,
2013-04-18 06:38:00,4.6,-4.5,30.80,NE,45,4.0,4.0,65,0.00,,,0.00,meteohub,2013-04-18 12:38:00,
2013-04-18 06:43:00,4.6,-4.5,30.81,North,0,3.0,4.0,65,0.00,,,0.00,meteohub,2013-04-18 12:43:00,
2013-04-18 06:49:00,4.5,-5.1,30.80,North,0,3.0,7.0,64,0.00,,,0.00,meteohub,2013-04-18 12:49:00,
2013-04-18 06:54:00,4.6,-4.9,30.81,North,0,3.0,7.0,64,0.00,,,0.00,meteohub,2013-04-18 12:54:00,
2013-04-18 06:59:00,4.6,-4.9,30.81,North,0,4.0,7.0,64,0.00,,,0.00,meteohub,2013-04-18 12:59:00,
2013-04-18 07:04:00,4.8,-4.4,30.81,North,0,4.0,6.0,65,0.00,,,0.00,meteohub,2013-04-18 13:04:00,
2013-04-18 07:09:00,5.2,-4.4,30.81,NW,315,3.0,6.0,64,0.00,,,0.00,meteohub,2013-04-18 13:09:00,
2013-04-18 07:14:00,5.4,-4.2,30.81,North,0,3.0,6.0,64,0.00,,,0.00,meteohub,2013-04-18 13:14:00,
2013-04-18 07:19:00,5.7,-3.8,30.81,North,0,4.0,7.0,64,0.00,,,0.00,meteohub,2013-04-18 13:19:00,
2013-04-18 07:24:00,5.9,-3.6,30.82,NE,45,5.0,7.0,64,0.00,,,0.00,meteohub,2013-04-18 13:24:00,
2013-04-18 07:29:00,6.3,-3.3,30.82,North,0,4.0,7.0,64,0.00,,,0.00,meteohub,2013-04-18 13:29:00,
2013-04-18 07:34:00,6.4,-2.7,30.81,NW,315,4.0,5.0,65,0.00,,,0.00,meteohub,2013-04-18 13:34:00,
2013-04-18 07:39:00,6.8,-2.7,30.82,North,0,4.0,5.0,64,0.00,,,0.00,meteohub,2013-04-18 13:39:00,
2013-04-18 07:44:00,7.0,-2.6,30.82,North,0,5.0,5.0,64,0.00,,,0.00,meteohub,2013-04-18 13:44:00,
2013-04-18 07:49:00,7.2,-2.4,30.82,North,0,9.0,9.0,64,0.00,,,0.00,meteohub,2013-04-18 13:49:00,
2013-04-18 07:54:00,7.3,-2.2,30.82,North,0,5.0,9.0,64,0.00,,,0.00,meteohub,2013-04-18 13:54:00,
2013-04-18 07:59:00,7.7,-2.2,30.82,North,0,6.0,9.0,63,0.00,,,0.00,meteohub,2013-04-18 13:59:00,
2013-04-18 08:04:00,7.7,-2.2,30.82,North,0,4.0,9.0,63,0.00,,,0.00,meteohub,2013-04-18 14:04:00,
2013-04-18 08:09:00,7.7,-2.2,30.82,North,0,5.0,7.0,63,0.00,,,0.00,meteohub,2013-04-18 14:09:00,
2013-04-18 08:14:00,7.7,-2.2,30.82,NW,315,5.0,7.0,63,0.00,,,0.00,meteohub,2013-04-18 14:14:00,
2013-04-18 08:19:00,7.9,-2.0,30.82,NW,315,8.0,9.0,63,0.00,,,0.00,meteohub,2013-04-18 14:19:00,
2013-04-18 08:24:00,7.9,-2.0,30.82,North,0,8.0,9.0,63,0.00,,,0.00,meteohub,2013-04-18 14:24:00,
2013-04-18 08:29:00,7.9,-2.4,30.82,North,0,8.0,9.0,62,0.00,,,0.00,meteohub,2013-04-18 14:29:00,
2013-04-18 08:34:00,8.1,-2.2,30.82,NW,315,6.0,9.0,62,0.00,,,0.00,meteohub,2013-04-18 14:34:00,
2013-04-18 08:39:00,8.4,-1.8,30.82,North,0,7.0,9.0,62,0.00,,,0.00,meteohub,2013-04-18 14:39:00,
2013-04-18 08:44:00,9.3,-1.1,30.82,NE,45,4.0,9.0,62,0.00,,,0.00,meteohub,2013-04-18 14:44:00,
2013-04-18 08:49:00,9.5,-1.3,30.82,North,0,8.0,8.0,61,0.00,,,0.00,meteohub,2013-04-18 14:49:00,
2013-04-18 08:54:00,9.9,-0.9,30.82,North,0,10.0,10.0,61,0.00,,,0.00,meteohub,2013-04-18 14:54:00,
2013-04-18 08:59:00,10.4,1.0,30.82,North,0,8.0,9.0,65,0.00,,,0.00,meteohub,2013-04-18 14:59:00,
2013-04-18 09:04:00,10.8,1.0,30.82,North,0,8.0,10.0,64,0.00,,,0.00,meteohub,2013-04-18 15:04:00,
2013-04-18 09:09:00,10.9,1.2,30.82,North,0,7.0,10.0,64,0.00,,,0.00,meteohub,2013-04-18 15:09:00,
2013-04-18 09:14:00,11.7,1.8,30.82,NE,45,10.0,11.0,64,0.00,,,0.00,meteohub,2013-04-18 15:14:00,
2013-04-18 09:19:00,12.6,2.3,30.82,NW,315,8.0,11.0,63,0.00,,,0.00,meteohub,2013-04-18 15:19:00,
2013-04-18 09:24:00,12.9,2.3,30.83,North,0,12.0,12.0,62,0.00,,,0.00,meteohub,2013-04-18 15:24:00,
2013-04-18 09:29:00,13.1,2.1,30.82,NW,315,10.0,14.0,61,0.00,,,0.00,meteohub,2013-04-18 15:29:00,
2013-04-18 09:34:00,12.9,1.9,30.82,North,0,12.0,14.0,61,0.00,,,0.00,meteohub,2013-04-18 15:34:00,
2013-04-18 09:39:00,13.1,1.4,30.83,East,90,11.0,17.0,59,0.00,,,0.00,meteohub,2013-04-18 15:39:00,
2013-04-18 09:45:00,13.3,1.2,30.83,North,0,15.0,17.0,58,0.00,,,0.00,meteohub,2013-04-18 15:45:00,
2013-04-18 09:50:00,12.7,0.3,30.83,North,0,17.0,17.0,57,0.00,,,0.00,meteohub,2013-04-18 15:50:00,
2013-04-18 09:55:00,12.7,0.0,30.83,North,0,19.0,19.0,56,0.00,,,0.00,meteohub,2013-04-18 15:55:00,
2013-04-18 10:00:00,12.4,-0.8,30.83,NW,315,12.0,17.0,55,0.00,,,0.00,meteohub,2013-04-18 16:00:00,
2013-04-18 10:05:00,12.4,-0.8,30.84,NW,315,12.0,19.0,55,0.00,,,0.00,meteohub,2013-04-18 16:05:00,
2013-04-18 10:10:00,12.4,-0.4,30.83,NE,45,15.0,19.0,56,0.00,,,0.00,meteohub,2013-04-18 16:10:00,
2013-04-18 10:15:00,12.7,0.0,30.84,North,0,18.0,19.0,56,0.00,,,0.00,meteohub,2013-04-18 16:15:00,
2013-04-18 10:20:00,12.7,0.0,30.84,NW,315,11.0,17.0,56,0.00,,,0.00,meteohub,2013-04-18 16:20:00,
2013-04-18 10:25:00,13.1,0.3,30.84,North,0,15.0,19.0,56,0.00,,,0.00,meteohub,2013-04-18 16:25:00,
2013-04-18 10:30:00,13.5,0.7,30.84,North,0,12.0,19.0,56,0.00,,,0.00,meteohub,2013-04-18 16:30:00,
2013-04-18 10:35:00,13.5,0.3,30.84,North,0,13.0,19.0,55,0.00,,,0.00,meteohub,2013-04-18 16:35:00,
2013-04-18 10:40:00,13.8,0.7,30.84,NW,315,15.0,17.0,55,0.00,,,0.00,meteohub,2013-04-18 16:40:00,
2013-04-18 10:45:00,14.0,0.5,30.84,NE,45,12.0,17.0,54,0.00,,,0.00,meteohub,2013-04-18 16:45:00,
2013-04-18 10:50:00,14.5,0.9,30.84,North,0,13.0,17.0,54,0.00,,,0.00,meteohub,2013-04-18 16:50:00,
2013-04-18 10:55:00,14.5,0.5,30.84,North,0,19.0,19.0,53,0.00,,,0.00,meteohub,2013-04-18 16:55:00,
2013-04-18 11:00:00,14.9,0.9,30.84,North,0,14.0,19.0,53,0.00,,,0.00,meteohub,2013-04-18 17:00:00,
2013-04-18 11:05:00,14.9,0.5,30.84,North,0,11.0,19.0,52,0.00,,,0.00,meteohub,2013-04-18 17:05:00,
2013-04-18 11:10:00,15.3,0.3,30.84,NE,45,10.0,19.0,51,0.00,,,0.00,meteohub,2013-04-18 17:10:00,
2013-04-18 11:15:00,15.8,0.5,30.85,NE,45,15.0,19.0,50,0.00,,,0.00,meteohub,2013-04-18 17:15:00,
2013-04-18 11:20:00,16.0,0.1,30.84,North,0,13.0,19.0,49,0.00,,,0.00,meteohub,2013-04-18 17:20:00,
2013-04-18 11:25:00,16.5,-0.2,30.85,North,0,14.0,16.0,47,0.00,,,0.00,meteohub,2013-04-18 17:25:00,
2013-04-18 11:30:00,16.9,-1.8,30.85,NE,45,9.0,15.0,43,0.00,,,0.00,meteohub,2013-04-18 17:30:00,
2013-04-18 11:35:00,17.2,-2.4,30.84,NW,315,8.0,17.0,41,0.00,,,0.00,meteohub,2013-04-18 17:35:00,
2013-04-18 11:40:00,18.0,-2.7,30.84,WNW,293,12.0,17.0,39,0.00,,,0.00,meteohub,2013-04-18 17:40:00,
2013-04-18 11:45:00,18.0,-3.5,30.84,East,90,11.0,17.0,38,0.00,,,0.00,meteohub,2013-04-18 17:45:00,
2013-04-18 11:50:00,18.9,-2.6,30.84,North,0,18.0,18.0,38,0.00,,,0.00,meteohub,2013-04-18 17:50:00,
2013-04-18 11:55:00,19.0,-3.5,30.84,North,0,19.0,19.0,36,0.00,,,0.00,meteohub,2013-04-18 17:55:00,
2013-04-18 12:00:00,18.3,-4.7,30.84,North,0,14.0,19.0,35,0.00,,,0.00,meteohub,2013-04-18 18:00:00,
2013-04-18 12:05:00,18.3,-4.7,30.84,North,0,14.0,19.0,35,0.00,,,0.00,meteohub,2013-04-18 18:05:00,
2013-04-18 12:10:00,19.9,0.5,30.84,North,0,8.0,19.0,42,0.00,,,0.00,meteohub,2013-04-18 18:10:00,
2013-04-18 12:15:00,20.1,0.7,30.84,West,270,17.0,17.0,42,0.00,,,0.00,meteohub,2013-04-18 18:15:00,
2013-04-18 12:20:00,20.1,-0.4,30.84,North,0,11.0,17.0,40,0.00,,,0.00,meteohub,2013-04-18 18:20:00,
2013-04-18 12:25:00,19.8,-0.6,30.84,NW,315,17.0,17.0,40,0.00,,,0.00,meteohub,2013-04-18 18:25:00,
2013-04-18 12:30:00,19.9,0.0,30.84,NW,315,11.0,17.0,41,0.00,,,0.00,meteohub,2013-04-18 18:30:00,
2013-04-18 12:35:00,19.2,-2.2,30.84,North,0,21.0,21.0,38,0.00,,,0.00,meteohub,2013-04-18 18:35:00,
2013-04-18 12:40:00,18.3,-2.6,30.84,NE,45,11.0,21.0,39,0.00,,,0.00,meteohub,2013-04-18 18:40:00,
2013-04-18 12:45:00,18.9,-1.5,30.85,North,0,17.0,21.0,40,0.00,,,0.00,meteohub,2013-04-18 18:45:00,
2013-04-18 12:50:00,18.9,-0.9,30.84,NE,45,11.0,21.0,41,0.00,,,0.00,meteohub,2013-04-18 18:50:00,
2013-04-18 12:55:00,18.9,-1.5,30.84,WNW,293,16.0,20.0,40,0.00,,,0.00,meteohub,2013-04-18 18:55:00,
2013-04-18 13:00:00,18.9,-0.4,30.84,NE,45,21.0,21.0,42,0.00,,,0.00,meteohub,2013-04-18 19:00:00,
2013-04-18 13:06:00,18.9,-0.9,30.85,North,0,14.0,21.0,41,0.00,,,0.00,meteohub,2013-04-18 19:06:00,
2013-04-18 13:11:00,18.9,-2.0,30.85,NE,45,16.0,21.0,39,0.00,,,0.00,meteohub,2013-04-18 19:11:00,
2013-04-18 13:16:00,19.0,-2.4,30.85,North,0,15.0,21.0,38,0.00,,,0.00,meteohub,2013-04-18 19:16:00,
2013-04-18 13:21:00,19.4,0.0,30.85,North,0,13.0,19.0,42,0.00,,,0.00,meteohub,2013-04-18 19:21:00,
2013-04-18 13:26:00,19.4,0.0,30.85,WNW,293,17.0,18.0,42,0.00,,,0.00,meteohub,2013-04-18 19:26:00,
2013-04-18 13:31:00,19.0,-4.2,30.85,North,0,16.0,18.0,35,0.00,,,0.00,meteohub,2013-04-18 19:31:00,
2013-04-18 13:36:00,19.4,-0.4,30.85,WNW,293,20.0,20.0,41,0.00,,,0.00,meteohub,2013-04-18 19:36:00,
2013-04-18 13:41:00,19.0,-2.9,30.85,NNE,23,11.0,20.0,37,0.00,,,0.00,meteohub,2013-04-18 19:41:00,
2013-04-18 13:46:00,18.7,-2.7,30.86,North,0,15.0,20.0,38,0.00,,,0.00,meteohub,2013-04-18 19:46:00,
2013-04-18 13:51:00,18.7,-2.2,30.85,West,270,15.0,22.0,39,0.00,,,0.00,meteohub,2013-04-18 19:51:00,
2013-04-18 13:56:00,19.2,-1.7,30.85,NNW,338,10.0,22.0,39,0.00,,,0.00,meteohub,2013-04-18 19:56:00,
2013-04-18 14:01:00,19.6,0.7,30.85,North,0,12.0,22.0,43,0.00,,,0.00,meteohub,2013-04-18 20:01:00,
2013-04-18 14:06:00,19.6,0.7,30.85,North,0,12.0,15.0,43,0.00,,,0.00,meteohub,2013-04-18 20:06:00,
2013-04-18 14:11:00,20.8,0.9,30.86,North,0,17.0,17.0,41,0.00,,,0.00,meteohub,2013-04-18 20:11:00,
2013-04-18 14:16:00,20.5,-0.6,30.86,NE,45,17.0,19.0,39,0.00,,,0.00,meteohub,2013-04-18 20:16:00,
2013-04-18 14:21:00,19.9,0.5,30.86,SW,225,12.0,19.0,42,0.00,,,0.00,meteohub,2013-04-18 20:21:00,
2013-04-18 14:26:00,21.2,1.8,30.86,NW,315,15.0,19.0,42,0.00,,,0.00,meteohub,2013-04-18 20:26:00,
2013-04-18 14:31:00,21.4,1.4,30.87,North,0,17.0,17.0,41,0.00,,,0.00,meteohub,2013-04-18 20:31:00,
2013-04-18 14:36:00,20.1,1.8,30.86,NE,45,13.0,17.0,44,0.00,,,0.00,meteohub,2013-04-18 20:36:00,
2013-04-18 14:41:00,19.6,1.2,30.86,WNW,293,15.0,17.0,44,0.00,,,0.00,meteohub,2013-04-18 20:41:00,
2013-04-18 14:46:00,19.9,1.6,30.87,WNW,293,15.0,18.0,44,0.00,,,0.00,meteohub,2013-04-18 20:46:00,
2013-04-18 14:51:00,19.8,1.8,30.86,East,90,15.0,21.0,45,0.00,,,0.00,meteohub,2013-04-18 20:51:00,
2013-04-18 14:56:00,19.4,1.0,30.87,North,0,15.0,21.0,44,0.00,,,0.00,meteohub,2013-04-18 20:56:00,
2013-04-18 15:02:00,19.4,1.0,30.87,North,0,15.0,21.0,44,0.00,,,0.00,meteohub,2013-04-18 21:02:00,
2013-04-18 15:07:00,19.6,1.2,30.87,North,0,17.0,21.0,44,0.00,,,0.00,meteohub,2013-04-18 21:07:00,
2013-04-18 15:12:00,19.6,1.2,30.87,North,0,16.0,21.0,44,0.00,,,0.00,meteohub,2013-04-18 21:12:00,
2013-04-18 15:17:00,19.8,1.4,30.87,South,180,11.0,21.0,44,0.00,,,0.00,meteohub,2013-04-18 21:17:00,
2013-04-18 15:22:00,20.3,1.4,30.87,North,0,11.0,17.0,43,0.00,,,0.00,meteohub,2013-04-18 21:22:00,
2013-04-18 15:27:00,21.0,1.6,30.87,East,90,11.0,17.0,42,0.00,,,0.00,meteohub,2013-04-18 21:27:00,
2013-04-18 15:32:00,21.2,0.7,30.87,NNW,338,16.0,17.0,40,0.00,,,0.00,meteohub,2013-04-18 21:32:00,
2013-04-18 15:37:00,21.4,1.4,30.87,NE,45,20.0,20.0,41,0.00,,,0.00,meteohub,2013-04-18 21:37:00,
2013-04-18 15:42:00,21.4,1.4,30.87,North,0,13.0,20.0,41,0.00,,,0.00,meteohub,2013-04-18 21:42:00,
2013-04-18 15:47:00,21.9,1.2,30.87,North,0,14.0,20.0,40,0.00,,,0.00,meteohub,2013-04-18 21:47:00,
2013-04-18 15:52:00,21.7,0.5,30.87,North,0,18.0,23.0,39,0.00,,,0.00,meteohub,2013-04-18 21:52:00,
2013-04-18 15:57:00,21.2,0.1,30.87,North,0,14.0,23.0,39,0.00,,,0.00,meteohub,2013-04-18 21:57:00,
2013-04-18 16:02:00,21.7,1.6,30.87,NW,315,12.0,21.0,41,0.00,,,0.00,meteohub,2013-04-18 22:02:00,
2013-04-18 16:07:00,21.7,1.6,30.88,NW,315,12.0,21.0,41,0.00,,,0.00,meteohub,2013-04-18 22:07:00,
2013-04-18 16:12:00,21.6,1.6,30.88,NE,45,19.0,21.0,41,0.00,,,0.00,meteohub,2013-04-18 22:12:00,
2013-04-18 16:17:00,20.3,-0.8,30.88,North,0,17.0,21.0,39,0.00,,,0.00,meteohub,2013-04-18 22:17:00,
2013-04-18 16:22:00,19.8,-0.6,30.88,North,0,13.0,21.0,40,0.00,,,0.00,meteohub,2013-04-18 22:22:00,
2013-04-18 16:27:00,20.3,0.9,30.88,North,0,13.0,21.0,42,0.00,,,0.00,meteohub,2013-04-18 22:27:00,
2013-04-18 16:32:00,21.4,1.4,30.88,NW,315,17.0,21.0,41,0.00,,,0.00,meteohub,2013-04-18 22:32:00,
2013-04-18 16:37:00,21.4,1.4,30.89,North,0,19.0,21.0,41,0.00,,,0.00,meteohub,2013-04-18 22:37:00,
2013-04-18 16:42:00,21.7,1.6,30.88,North,0,11.0,19.0,41,0.00,,,0.00,meteohub,2013-04-18 22:42:00,
2013-04-18 16:47:00,20.8,0.9,30.89,North,0,17.0,19.0,41,0.00,,,0.00,meteohub,2013-04-18 22:47:00,
2013-04-18 16:52:00,19.8,-0.6,30.89,NW,315,11.0,19.0,40,0.00,,,0.00,meteohub,2013-04-18 22:52:00,
2013-04-18 16:57:00,19.0,-3.5,30.90,WNW,293,15.0,19.0,36,0.00,,,0.00,meteohub,2013-04-18 22:57:00,
2013-04-18 17:02:00,19.2,-2.2,30.90,North,0,12.0,21.0,38,0.00,,,0.00,meteohub,2013-04-18 23:02:00,
2013-04-18 17:07:00,18.7,-2.7,30.90,North,0,21.0,23.0,38,0.00,,,0.00,meteohub,2013-04-18 23:07:00,
2013-04-18 17:12:00,18.7,-2.7,30.90,North,0,15.0,25.0,38,0.00,,,0.00,meteohub,2013-04-18 23:12:00,
2013-04-18 17:17:00,18.0,-3.5,30.90,WNW,293,18.0,25.0,38,0.00,,,0.00,meteohub,2013-04-18 23:17:00,
2013-04-18 17:22:00,17.2,-3.5,30.90,North,0,18.0,25.0,39,0.00,,,0.00,meteohub,2013-04-18 23:22:00,
2013-04-18 17:27:00,17.2,-3.5,30.90,North,0,13.0,23.0,39,0.00,,,0.00,meteohub,2013-04-18 23:27:00,
2013-04-18 17:32:00,17.4,-3.3,30.91,North,0,14.0,23.0,39,0.00,,,0.00,meteohub,2013-04-18 23:32:00,
2013-04-18 17:37:00,17.4,-3.3,30.90,North,0,19.0,19.0,39,0.00,,,0.00,meteohub,2013-04-18 23:37:00,
2013-04-18 17:42:00,17.6,-4.2,30.91,NW,315,15.0,21.0,37,0.00,,,0.00,meteohub,2013-04-18 23:42:00,
2013-04-18 17:47:00,18.3,-4.2,30.91,NW,315,17.0,21.0,36,0.00,,,0.00,meteohub,2013-04-18 23:47:00,
2013-04-18 17:52:00,19.4,-1.5,30.91,NW,315,12.0,21.0,39,0.00,,,0.00,meteohub,2013-04-18 23:52:00,
2013-04-18 17:57:00,19.4,-2.6,30.91,NE,45,11.0,20.0,37,0.00,,,0.00,meteohub,2013-04-18 23:57:00,
2013-04-18 18:02:00,19.0,-5.3,30.91,North,0,15.0,19.0,33,0.00,,,0.00,meteohub,2013-04-19 00:02:00,
2013-04-18 18:07:00,19.0,-5.3,30.91,North,0,15.0,19.0,33,0.00,,,0.00,meteohub,2013-04-19 00:07:00,
2013-04-18 18:12:00,19.2,-4.0,30.91,NW,315,15.0,19.0,35,0.00,,,0.00,meteohub,2013-04-19 00:12:00,
2013-04-18 18:17:00,19.0,-4.7,30.91,North,0,11.0,20.0,34,0.00,,,0.00,meteohub,2013-04-19 00:17:00,
2013-04-18 18:22:00,19.0,-6.0,30.91,North,0,18.0,20.0,32,0.00,,,0.00,meteohub,2013-04-19 00:22:00,
2013-04-18 18:26:00,18.9,-6.9,30.92,NW,315,15.0,20.0,31,0.00,,,0.00,meteohub,2013-04-19 00:26:00,
2013-04-18 18:32:00,18.5,-7.1,30.92,NE,45,10.0,20.0,31,0.00,,,0.00,meteohub,2013-04-19 00:32:00,
2013-04-18 18:37:00,18.5,-5.8,30.92,NE,45,16.0,18.0,33,0.00,,,0.00,meteohub,2013-04-19 00:37:00,
2013-04-18 18:42:00,18.0,-6.9,30.92,North,0,13.0,16.0,32,0.00,,,0.00,meteohub,2013-04-19 00:42:00,
2013-04-18 18:48:00,17.8,-7.1,30.92,North,0,11.0,16.0,32,0.00,,,0.00,meteohub,2013-04-19 00:48:00,
2013-04-18 18:53:00,17.6,-6.7,30.92,North,0,15.0,16.0,33,0.00,,,0.00,meteohub,2013-04-19 00:53:00,
2013-04-18 18:58:00,17.4,-6.7,30.92,North,0,11.0,15.0,33,0.00,,,0.00,meteohub,2013-04-19 00:58:00,
2013-04-18 19:03:00,17.2,-6.3,30.93,NE,45,18.0,18.0,34,0.00,,,0.00,meteohub,2013-04-19 01:03:00,
2013-04-18 19:08:00,17.1,-6.5,30.93,North,0,12.0,18.0,34,0.00,,,0.00,meteohub,2013-04-19 01:08:00,
2013-04-18 19:13:00,16.7,-6.2,30.94,North,0,10.0,18.0,35,0.00,,,0.00,meteohub,2013-04-19 01:13:00,
2013-04-18 19:18:00,16.3,-6.5,30.94,North,0,11.0,18.0,35,0.00,,,0.00,meteohub,2013-04-19 01:18:00,
2013-04-18 19:23:00,16.3,-6.0,30.93,WNW,293,11.0,15.0,36,0.00,,,0.00,meteohub,2013-04-19 01:23:00,
2013-04-18 19:28:00,16.2,-6.2,30.94,North,0,18.0,18.0,36,0.00,,,0.00,meteohub,2013-04-19 01:28:00,
2013-04-18 19:33:00,16.0,-6.3,30.94,North,0,11.0,18.0,36,0.00,,,0.00,meteohub,2013-04-19 01:33:00,
2013-04-18 19:38:00,16.0,-5.6,30.95,NW,315,8.0,18.0,37,0.00,,,0.00,meteohub,2013-04-19 01:38:00,
2013-04-18 19:43:00,15.8,-5.8,30.95,North,0,8.0,18.0,37,0.00,,,0.00,meteohub,2013-04-19 01:43:00,
2013-04-18 19:48:00,15.8,-5.8,30.95,North,0,11.0,13.0,37,0.00,,,0.00,meteohub,2013-04-19 01:48:00,
2013-04-18 19:53:00,15.8,-5.8,30.95,NW,315,8.0,13.0,37,0.00,,,0.00,meteohub,2013-04-19 01:53:00,
2013-04-18 19:58:00,15.6,-5.4,30.95,NE,45,6.0,13.0,38,0.00,,,0.00,meteohub,2013-04-19 01:58:00,
2013-04-18 20:02:00,15.6,-4.4,30.96,North,0,8.0,13.0,40,0.00,,,0.00,meteohub,2013-04-19 02:02:00,
2013-04-18 20:07:00,15.6,-4.4,30.96,North,0,8.0,13.0,40,0.00,,,0.00,meteohub,2013-04-19 02:07:00,
2013-04-18 20:12:00,15.3,-4.7,30.96,NW,315,2.0,8.0,40,0.00,,,0.00,meteohub,2013-04-19 02:12:00,
2013-04-18 20:18:00,14.9,-5.1,30.96,NW,315,4.0,8.0,40,0.00,,,0.00,meteohub,2013-04-19 02:18:00,
2013-04-18 20:22:00,14.4,-5.1,30.97,North,0,4.0,8.0,41,0.00,,,0.00,meteohub,2013-04-19 02:22:00,
2013-04-18 20:28:00,14.2,-5.3,30.97,North,0,2.0,5.0,41,0.00,,,0.00,meteohub,2013-04-19 02:28:00,
2013-04-18 20:33:00,13.8,-4.5,30.97,North,0,4.0,5.0,43,0.00,,,0.00,meteohub,2013-04-19 02:33:00,
2013-04-18 20:38:00,13.6,-4.7,30.97,North,0,3.0,6.0,43,0.00,,,0.00,meteohub,2013-04-19 02:38:00,
2013-04-18 20:43:00,13.1,-5.3,30.97,North,0,2.0,6.0,43,0.00,,,0.00,meteohub,2013-04-19 02:43:00,
2013-04-18 20:48:00,12.7,-5.6,30.97,SW,225,1.0,6.0,43,0.00,,,0.00,meteohub,2013-04-19 02:48:00,
2013-04-18 20:53:00,12.4,-5.8,30.97,North,0,2.0,3.0,43,0.00,,,0.00,meteohub,2013-04-19 02:53:00,
2013-04-18 20:58:00,11.8,-5.8,30.98,SE,135,2.0,3.0,44,0.00,,,0.00,meteohub,2013-04-19 02:58:00,
2013-04-18 21:03:00,11.5,-6.2,30.98,NE,45,4.0,4.0,44,0.00,,,0.00,meteohub,2013-04-19 03:03:00,
2013-04-18 21:08:00,10.9,-6.2,30.98,East,90,5.0,5.0,45,0.00,,,0.00,meteohub,2013-04-19 03:08:00,
2013-04-18 21:13:00,10.2,-8.9,30.98,East,90,5.0,6.0,41,0.00,,,0.00,meteohub,2013-04-19 03:13:00,
2013-04-18 21:18:00,9.9,-9.2,30.98,SE,135,3.0,6.0,41,0.00,,,0.00,meteohub,2013-04-19 03:18:00,
2013-04-18 21:23:00,9.7,-9.2,30.99,East,90,2.0,6.0,41,0.00,,,0.00,meteohub,2013-04-19 03:23:00,
2013-04-18 21:28:00,9.1,-9.8,30.98,East,90,2.0,6.0,41,0.00,,,0.00,meteohub,2013-04-19 03:28:00,
2013-04-18 21:33:00,9.0,-9.9,30.98,ESE,113,4.0,4.0,41,0.00,,,0.00,meteohub,2013-04-19 03:33:00,
2013-04-18 21:38:00,8.6,-9.8,30.99,East,90,5.0,5.0,42,0.00,,,0.00,meteohub,2013-04-19 03:38:00,
2013-04-18 21:43:00,8.2,-9.6,30.99,East,90,4.0,5.0,43,0.00,,,0.00,meteohub,2013-04-19 03:43:00,
2013-04-18 21:48:00,8.4,-9.0,30.99,East,90,4.0,5.0,44,0.00,,,0.00,meteohub,2013-04-19 03:48:00,
2013-04-18 21:53:00,8.6,-8.9,30.99,SE,135,4.0,5.0,44,0.00,,,0.00,meteohub,2013-04-19 03:53:00,
2013-04-18 21:58:00,8.8,-8.7,30.98,NE,45,3.0,5.0,44,0.00,,,0.00,meteohub,2013-04-19 03:58:00,
2013-04-18 22:01:00,8.8,-8.7,30.99,East,90,2.0,5.0,44,0.00,,,0.00,meteohub,2013-04-19 04:01:00,
2013-04-18 22:02:00,8.8,-8.7,30.98,East,90,2.0,5.0,44,0.00,,,0.00,meteohub,2013-04-19 04:02:00,
2013-04-18 22:07:00,8.8,-8.7,30.99,East,90,2.0,4.0,44,0.00,,,0.00,meteohub,2013-04-19 04:07:00,
2013-04-18 22:12:00,8.8,-8.1,30.99,East,90,3.0,4.0,45,0.00,,,0.00,meteohub,2013-04-19 04:12:00,
2013-04-18 22:17:00,8.6,-8.3,30.99,East,90,1.0,3.0,45,0.00,,,0.00,meteohub,2013-04-19 04:17:00,
2013-04-18 22:22:00,8.4,-8.1,30.99,South,180,2.0,4.0,46,0.00,,,0.00,meteohub,2013-04-19 04:22:00,
2013-04-18 22:27:00,8.2,-8.3,30.98,East,90,2.0,4.0,46,0.00,,,0.00,meteohub,2013-04-19 04:27:00,
2013-04-18 22:32:00,8.4,-8.1,30.98,South,180,2.0,2.0,46,0.00,,,0.00,meteohub,2013-04-19 04:32:00,
2013-04-18 22:37:00,8.2,-8.3,30.98,SE,135,2.0,2.0,46,0.00,,,0.00,meteohub,2013-04-19 04:37:00,
2013-04-18 22:42:00,8.4,-7.6,30.98,South,180,2.0,2.0,47,0.00,,,0.00,meteohub,2013-04-19 04:42:00,
2013-04-18 22:47:00,8.4,-7.6,30.98,East,90,2.0,2.0,47,0.00,,,0.00,meteohub,2013-04-19 04:47:00,
2013-04-18 22:52:00,8.8,-7.4,30.98,SW,225,2.0,2.0,47,0.00,,,0.00,meteohub,2013-04-19 04:52:00,
2013-04-18 22:57:00,9.0,-6.7,30.98,South,180,0.0,2.0,48,0.00,,,0.00,meteohub,2013-04-19 04:57:00,
2013-04-18 23:02:00,9.0,-6.7,30.98,SE,135,0.0,2.0,48,0.00,,,0.00,meteohub,2013-04-19 05:02:00,
2013-04-18 23:07:00,9.1,-6.5,30.98,SW,225,0.0,2.0,48,0.00,,,0.00,meteohub,2013-04-19 05:07:00,
2013-04-18 23:12:00,9.1,-6.5,30.98,SE,135,2.0,0.0,48,0.00,,,0.00,meteohub,2013-04-19 05:12:00,
2013-04-18 23:17:00,9.1,-6.5,30.98,SE,135,3.0,3.0,48,0.00,,,0.00,meteohub,2013-04-19 05:17:00,
2013-04-18 23:22:00,9.1,-6.5,30.98,South,180,2.0,3.0,48,0.00,,,0.00,meteohub,2013-04-19 05:22:00,
2013-04-18 23:27:00,9.1,-6.5,30.98,South,180,0.0,3.0,48,0.00,,,0.00,meteohub,2013-04-19 05:27:00,
2013-04-18 23:32:00,9.0,-6.7,30.98,East,90,0.0,3.0,48,0.00,,,0.00,meteohub,2013-04-19 05:32:00,
2013-04-18 23:37:00,9.0,-6.7,30.98,East,90,0.0,2.0,48,0.00,,,0.00,meteohub,2013-04-19 05:37:00,
2013-04-18 23:42:00,9.0,-6.7,30.98,SE,135,2.0,2.0,48,0.00,,,0.00,meteohub,2013-04-19 05:42:00,
2013-04-18 23:47:00,9.0,-6.3,30.98,South,180,2.0,3.0,49,0.00,,,0.00,meteohub,2013-04-19 05:47:00,
2013-04-18 23:52:00,9.0,-6.3,30.98,South,180,0.0,3.0,49,0.00,,,0.00,meteohub,2013-04-19 05:52:00,
2013-04-18 23:57:00,9.0,-6.3,30.98,South,180,2.0,3.0,49,0.00,,,0.00,meteohub,2013-04-19 05:57:00,